Time;durP1;ratioP1;P1;durP2;ratioP2;P2;SDS_P1;SDS_P2;PMS_P1;PMS_P2;Temp;Humidity;BMP_temperature;BMP_pressure;BME280_temperature;BME280_humidity;BME280_pressure;Samples;Min_cycle;Max_cycle;Signal;HPM_P1;HPM_P2
2022/07/21 00:02:07;;;;;;;28.43;22.23;;;;;;;19.70;96.59;101555.78;4994934;28;20484;-42
2022/07/21 00:04:35;;;;;;;24.00;21.50;;;;;;;19.68;96.79;101549.81;4995341;28;20437;-47
2022/07/21 00:07:02;;;;;;;26.43;20.50;;;;;;;19.70;96.65;101547.69;4995619;28;20524;-42
2022/07/21 00:09:30;;;;;;;26.80;20.77;;;;;;;19.68;96.74;101542.47;4995612;28;20440;-42
2022/07/21 00:11:57;;;;;;;23.70;21.13;;;;;;;19.68;96.38;101544.38;4994747;28;20467;-44
2022/07/21 00:14:25;;;;;;;26.90;20.20;;;;;;;19.66;96.41;101535.66;4995171;28;20437;-42
2022/07/21 00:16:54;;;;;;;30.33;22.53;;;;;;;19.65;96.25;101536.75;4995145;28;20473;-43
2022/07/21 00:19:22;;;;;;;27.80;20.87;;;;;;;19.62;96.55;101532.59;4995475;28;20953;-46
2022/07/21 00:21:50;;;;;;;25.63;21.90;;;;;;;19.59;96.83;101524.97;4994527;28;20473;-47
2022/07/21 00:24:17;;;;;;;26.37;21.53;;;;;;;19.58;97.17;101530.63;4995029;28;20979;-44
2022/07/21 00:26:45;;;;;;;31.70;23.23;;;;;;;19.55;98.34;101534.63;4995311;28;20442;-44
2022/07/21 00:29:13;;;;;;;27.77;21.87;;;;;;;19.54;98.50;101532.16;4995129;28;20433;-45
2022/07/21 00:31:40;;;;;;;26.17;22.87;;;;;;;19.57;98.23;101527.09;4994595;28;20474;-42
2022/07/21 00:34:09;;;;;;;26.97;21.77;;;;;;;19.62;98.17;101531.81;4994892;28;20430;-42
2022/07/21 00:36:37;;;;;;;27.40;23.47;;;;;;;19.61;98.10;101517.44;4994888;28;20457;-44
2022/07/21 00:39:04;;;;;;;27.27;22.53;;;;;;;19.58;98.39;101520.63;4995047;28;20434;-42
2022/07/21 00:41:33;;;;;;;27.47;23.10;;;;;;;19.54;99.11;101521.31;4994421;28;20470;-44
2022/07/21 00:44:00;;;;;;;36.07;24.03;;;;;;;19.56;99.25;101513.81;4993626;28;20437;-44
2022/07/21 00:46:28;;;;;;;36.73;24.20;;;;;;;19.55;99.14;101512.16;4994920;28;20441;-47
2022/07/21 00:48:56;;;;;;;28.70;25.70;;;;;;;19.55;99.20;101514.88;4994830;28;20541;-42
2022/07/21 00:51:25;;;;;;;30.10;22.17;;;;;;;19.52;99.16;101513.47;4994309;28;20484;-43
2022/07/21 00:53:52;;;;;;;30.53;23.60;;;;;;;19.47;99.78;101502.53;4994405;28;20432;-43
2022/07/21 00:56:22;;;;;;;29.17;24.93;;;;;;;19.44;99.53;101513.00;4994497;28;20488;-44
2022/07/21 00:58:49;;;;;;;31.33;25.33;;;;;;;19.41;99.48;101502.66;4994722;28;20445;-44
2022/07/21 01:01:18;;;;;;;30.07;25.90;;;;;;;19.43;99.62;101514.88;4994144;28;20465;-42
2022/07/21 01:03:45;;;;;;;34.60;24.03;;;;;;;19.41;99.62;101510.75;4994235;28;20480;-48
2022/07/21 01:06:13;;;;;;;33.33;27.40;;;;;;;19.38;100.00;101511.22;4994581;28;20444;-48
2022/07/21 01:08:42;;;;;;;29.73;24.63;;;;;;;19.33;100.00;101504.59;4994302;28;20433;-42
2022/07/21 01:11:10;;;;;;;30.00;24.63;;;;;;;19.26;100.00;101495.78;4993255;28;20468;-45
2022/07/21 01:13:41;;;;;;;34.33;26.87;;;;;;;19.21;100.00;101497.56;4994196;28;20425;-42
2022/07/21 01:16:09;;;;;;;35.70;27.37;;;;;;;19.19;100.00;101486.97;4994379;28;20966;-43
2022/07/21 01:18:37;;;;;;;33.60;29.00;;;;;;;19.15;100.00;101483.09;4994040;28;21009;-42
2022/07/21 01:21:13;;;;;;;33.53;27.67;;;;;;;19.13;100.00;101482.53;4993581;28;20459;-44
2022/07/21 01:23:41;;;;;;;33.60;25.50;;;;;;;19.14;100.00;101477.94;4993670;28;20495;-43
2022/07/21 01:26:08;;;;;;;31.10;25.83;;;;;;;19.09;100.00;101473.22;4994355;28;20810;-43
2022/07/21 01:28:36;;;;;;;27.33;24.13;;;;;;;19.12;100.00;101470.03;4994074;28;20456;-43
2022/07/21 01:31:03;;;;;;;31.57;28.23;;;;;;;19.14;100.00;101475.22;4993461;28;20449;-45
2022/07/21 01:33:31;;;;;;;36.73;29.03;;;;;;;19.11;100.00;101470.28;4993561;28;20438;-42
2022/07/21 01:35:59;;;;;;;27.10;24.37;;;;;;;19.14;100.00;101461.72;4993717;28;20955;-42
2022/07/21 01:41:32;;;;;;;28.53;25.47;;;;;;;19.12;100.00;101464.63;4993120;28;20981;-46
2022/07/21 01:44:02;;;;;;;31.37;26.03;;;;;;;19.09;100.00;101467.81;4993581;28;20473;-44
2022/07/21 01:46:32;;;;;;;33.17;27.60;;;;;;;19.04;100.00;101473.09;4993542;28;20430;-42
2022/07/21 01:49:00;;;;;;;30.57;26.07;;;;;;;19.01;100.00;101468.16;4993788;28;20524;-47
2022/07/21 01:51:28;;;;;;;37.87;28.70;;;;;;;19.00;100.00;101474.63;4993157;28;20473;-42
2022/07/21 01:53:57;;;;;;;32.20;25.97;;;;;;;18.98;100.00;101476.75;4993138;28;20954;-45
2022/07/21 01:56:26;;;;;;;31.00;26.57;;;;;;;19.00;100.00;101474.63;4993514;28;20445;-43
2022/07/21 01:58:57;;;;;;;31.00;25.27;;;;;;;18.96;100.00;101475.34;4993290;28;20951;-43
2022/07/21 02:01:27;;;;;;;30.67;27.07;;;;;;;18.93;100.00;101475.81;4992860;28;20481;-43
2022/07/21 02:03:55;;;;;;;38.77;27.37;;;;;;;18.93;100.00;101476.63;4993172;28;20482;-43
2022/07/21 02:06:24;;;;;;;35.57;27.37;;;;;;;18.92;100.00;101474.97;4993225;28;20528;-42
2022/07/21 02:08:52;;;;;;;39.13;27.90;;;;;;;18.87;100.00;101464.06;4993371;28;20430;-42
2022/07/21 02:11:21;;;;;;;36.73;30.30;;;;;;;18.88;100.00;101472.97;4992504;28;20469;-46
2022/07/21 02:13:49;;;;;;;34.40;27.33;;;;;;;18.88;100.00;101467.56;4992782;28;20434;-43
2022/07/21 02:16:17;;;;;;;35.27;28.07;;;;;;;18.91;100.00;101465.22;4993199;28;20880;-42
2022/07/21 02:18:45;;;;;;;39.17;27.60;;;;;;;18.88;100.00;101471.09;4993102;28;20438;-46
2022/07/21 02:21:12;;;;;;;35.27;29.70;;;;;;;18.86;100.00;101475.91;4992588;28;20453;-45
2022/07/21 02:23:40;;;;;;;35.13;31.43;;;;;;;18.86;100.00;101478.63;4992622;28;21062;-42
2022/07/21 02:26:08;;;;;;;42.50;31.67;;;;;;;18.87;100.00;101480.28;4992785;28;20433;-43
2022/07/21 02:28:37;;;;;;;39.90;30.03;;;;;;;18.83;100.00;101489.88;4993028;28;20449;-43
2022/07/21 02:31:05;;;;;;;38.00;31.80;;;;;;;18.84;100.00;101478.03;4992514;28;20824;-42
2022/07/21 02:33:33;;;;;;;35.37;28.10;;;;;;;18.79;100.00;101459.81;4992667;28;20433;-49
2022/07/21 02:36:01;;;;;;;34.77;28.90;;;;;;;18.77;100.00;101455.69;4992885;28;20805;-42
2022/07/21 02:38:28;;;;;;;41.23;31.13;;;;;;;18.77;100.00;101458.41;4992686;28;20437;-42
2022/07/21 02:40:56;;;;;;;39.33;31.40;;;;;;;18.70;100.00;101441.47;4992861;28;20800;-45
2022/07/21 02:43:24;;;;;;;38.70;30.90;;;;;;;18.60;100.00;101433.94;4992201;28;20481;-45
2022/07/21 02:45:53;;;;;;;43.63;29.77;;;;;;;18.63;100.00;101447.00;4992779;28;20426;-43
2022/07/21 02:48:21;;;;;;;43.30;32.83;;;;;;;18.61;100.00;101450.97;4992613;28;20522;-45
2022/07/21 02:50:48;;;;;;;41.07;31.87;;;;;;;18.62;100.00;101441.81;4992441;28;20445;-42
2022/07/21 02:53:19;;;;;;;40.33;31.07;;;;;;;18.60;100.00;101441.22;4991667;28;20468;-47
2022/07/21 02:55:47;;;;;;;41.90;31.57;;;;;;;18.60;100.00;101455.56;4992639;28;20867;-45
2022/07/21 02:58:17;;;;;;;43.17;32.10;;;;;;;18.62;100.00;101455.31;4992678;28;20441;-46
2022/07/21 03:00:47;;;;;;;38.60;29.90;;;;;;;18.64;100.00;101472.94;4992407;28;20958;-42
2022/07/21 03:03:16;;;;;;;42.47;31.83;;;;;;;18.69;100.00;101502.81;4991605;28;20477;-45
2022/07/21 03:05:43;;;;;;;35.63;30.43;;;;;;;18.75;100.00;101522.66;4992127;28;20433;-43
2022/07/21 03:08:12;;;;;;;43.03;29.77;;;;;;;18.76;100.00;101554.00;4992233;28;20444;-44
2022/07/21 03:10:39;;;;;;;40.27;31.20;;;;;;;18.81;100.00;101556.03;4992303;28;20460;-42
2022/07/21 03:13:07;;;;;;;41.57;33.07;;;;;;;18.78;100.00;101554.63;4991535;28;20465;-42
2022/07/21 03:15:36;;;;;;;40.93;32.10;;;;;;;18.71;100.00;101548.47;4992464;28;20440;-42
2022/07/21 03:18:04;;;;;;;35.97;31.70;;;;;;;18.58;100.00;101567.56;4992144;28;20521;-43
2022/07/21 03:20:35;;;;;;;38.13;30.93;;;;;;;18.48;100.00;101551.09;4992391;28;20798;-42
2022/07/21 03:23:03;;;;;;;35.50;30.80;;;;;;;18.45;100.00;101551.53;4991432;28;20469;-43
2022/07/21 03:25:31;;;;;;;36.57;32.73;;;;;;;18.41;100.00;101553.88;4992313;28;20456;-45
2022/07/21 03:27:59;;;;;;;35.23;29.63;;;;;;;18.39;100.00;101558.69;4992106;28;20927;-43
2022/07/21 03:30:28;;;;;;;38.87;30.13;;;;;;;18.41;100.00;101551.16;4992161;28;21001;-44
2022/07/21 03:32:57;;;;;;;41.10;30.87;;;;;;;18.40;100.00;101540.59;4991314;28;20470;-44
2022/07/21 03:35:25;;;;;;;32.70;28.37;;;;;;;18.44;100.00;101529.09;4992366;28;20440;-43
2022/07/21 03:37:55;;;;;;;38.10;30.37;;;;;;;18.46;100.00;101529.69;4992281;28;20437;-45
2022/07/21 03:40:25;;;;;;;36.67;31.13;;;;;;;18.53;100.00;101533.16;4992194;28;20931;-43
2022/07/21 03:42:54;;;;;;;30.60;27.30;;;;;;;18.59;100.00;101536.81;4991248;28;20480;-44
2022/07/21 03:45:23;;;;;;;47.03;29.30;;;;;;;18.65;100.00;101525.91;4992246;28;21069;-45
2022/07/21 03:47:50;;;;;;;29.47;24.80;;;;;;;18.74;100.00;101521.00;4992186;28;20440;-43
2022/07/21 03:50:18;;;;;;;32.63;26.80;;;;;;;18.82;100.00;101522.56;4992095;28;20555;-43
2022/07/21 03:52:46;;;;;;;39.60;27.90;;;;;;;18.90;100.00;101517.66;4991293;28;20474;-45
2022/07/21 03:55:17;;;;;;;32.10;25.87;;;;;;;19.00;100.00;101520.56;4992126;28;20437;-44
2022/07/21 03:57:47;;;;;;;27.03;24.13;;;;;;;19.12;100.00;101521.41;4992016;28;20926;-43
2022/07/21 04:00:18;;;;;;;30.90;26.30;;;;;;;19.23;100.00;101526.00;4992179;28;20815;-45
2022/07/21 04:02:47;;;;;;;38.30;24.67;;;;;;;19.28;100.00;101528.00;4990958;28;20466;-46
2022/07/21 04:05:15;;;;;;;31.10;26.17;;;;;;;19.33;100.00;101530.81;4991817;28;20484;-46
2022/07/21 04:07:45;;;;;;;32.40;24.67;;;;;;;19.40;100.00;101531.56;4991794;28;20430;-44
2022/07/21 04:10:15;;;;;;;25.27;22.60;;;;;;;19.47;100.00;101535.00;4991693;28;20444;-43
2022/07/21 04:12:45;;;;;;;26.27;23.50;;;;;;;19.58;100.00;101530.63;4991106;28;20932;-44
2022/07/21 04:15:13;;;;;;;28.93;25.83;;;;;;;19.67;100.00;101524.63;4991915;28;20436;-44
2022/07/21 04:17:41;;;;;;;32.67;25.07;;;;;;;19.82;100.00;101533.06;4992021;28;20437;-44
2022/07/21 04:20:11;;;;;;;27.47;23.37;;;;;;;19.92;99.18;101520.81;4994719;28;20429;-45
2022/07/21 04:22:39;;;;;;;33.50;23.80;;;;;;;20.00;98.44;101515.00;4994347;28;20471;-46
2022/07/21 04:25:08;;;;;;;31.80;23.83;;;;;;;20.03;97.67;101501.00;4995194;28;20563;-44
2022/07/21 04:27:37;;;;;;;28.90;25.20;;;;;;;20.10;97.79;101507.09;4995247;28;20439;-43
2022/07/21 04:30:08;;;;;;;31.53;25.73;;;;;;;20.22;97.97;101503.28;4995106;28;20537;-48
2022/07/21 04:32:37;;;;;;;29.13;23.30;;;;;;;20.37;98.23;101500.06;4994294;28;20465;-45
2022/07/21 04:35:05;;;;;;;28.50;22.23;;;;;;;20.57;98.00;101508.56;4994731;28;20432;-44
2022/07/21 04:37:33;;;;;;;34.40;23.20;;;;;;;20.76;97.38;101511.84;4994818;28;20444;-44
2022/07/21 04:40:01;;;;;;;30.97;21.50;;;;;;;20.99;95.47;101517.16;4994991;28;20438;-44
2022/07/21 04:42:29;;;;;;;26.57;20.57;;;;;;;21.22;94.81;101514.28;4994223;28;20473;-44
2022/07/21 04:44:56;;;;;;;26.83;20.93;;;;;;;21.77;95.00;101517.00;4994733;28;20473;-46
2022/07/21 04:47:25;;;;;;;29.40;21.90;;;;;;;22.28;90.69;101509.47;4994651;28;20452;-47
2022/07/21 04:49:53;;;;;;;21.73;18.40;;;;;;;22.82;87.73;101513.81;4994478;28;20919;-46
2022/07/21 04:52:21;;;;;;;22.13;18.97;;;;;;;23.40;83.46;101506.66;4994038;28;20473;-46
2022/07/21 04:54:48;;;;;;;25.60;17.43;;;;;;;23.85;80.06;101511.53;4994710;28;20436;-48
2022/07/21 04:57:16;;;;;;;27.60;18.10;;;;;;;24.18;77.11;101506.53;4994632;28;20443;-49
2022/07/21 04:59:43;;;;;;;21.10;18.37;;;;;;;24.64;76.07;101515.59;4992582;28;20456;-45
2022/07/21 05:02:11;;;;;;;25.67;18.70;;;;;;;24.87;72.10;101518.91;4992722;28;20473;-47
2022/07/21 05:04:40;;;;;;;22.63;17.03;;;;;;;24.73;71.52;101535.78;4994225;28;21053;-46
2022/07/21 05:07:08;;;;;;;26.37;15.90;;;;;;;24.65;72.14;101532.78;4994176;28;20500;-48
2022/07/21 05:09:36;;;;;;;17.07;14.00;;;;;;;25.06;74.47;101534.47;4994528;28;20436;-46
2022/07/21 05:12:04;;;;;;;18.60;13.80;;;;;;;25.39;71.22;101541.25;4993706;28;20469;-47
2022/07/21 05:14:31;;;;;;;21.10;14.17;;;;;;;25.18;68.86;101531.44;4994328;28;20545;-45
2022/07/21 05:16:59;;;;;;;26.60;15.30;;;;;;;24.99;68.71;101533.13;4993868;28;20529;-46
2022/07/21 05:19:27;;;;;;;14.70;13.20;;;;;;;25.13;71.36;101523.28;4992989;28;20434;-47
2022/07/21 05:21:56;;;;;;;18.10;14.10;;;;;;;26.11;72.86;101526.28;4993745;28;20472;-49
2022/07/21 05:24:23;;;;;;;20.37;13.70;;;;;;;26.31;67.32;101515.31;4993741;28;20931;-46
2022/07/21 05:26:51;;;;;;;19.90;13.57;;;;;;;26.77;66.85;101521.25;4993920;28;20943;-49
2022/07/21 05:29:19;;;;;;;25.37;14.57;;;;;;;27.15;61.52;101533.31;4993618;28;20804;-49
2022/07/21 05:31:46;;;;;;;18.10;13.33;;;;;;;27.33;60.90;101527.09;4992750;28;20492;-45
2022/07/21 05:34:14;;;;;;;20.63;14.50;;;;;;;27.49;62.57;101523.13;4992121;28;20429;-51
2022/07/21 05:36:41;;;;;;;20.17;14.60;;;;;;;27.64;59.02;101533.91;4994070;28;20434;-48
2022/07/21 05:39:10;;;;;;;17.13;12.03;;;;;;;28.09;60.59;101534.50;4991748;28;20822;-45
2022/07/21 05:41:38;;;;;;;18.10;11.90;;;;;;;28.42;56.82;101519.78;4993127;28;20461;-44
2022/07/21 05:44:06;;;;;;;15.20;12.23;;;;;;;28.54;57.61;101520.16;4992971;28;20437;-45
2022/07/21 05:46:33;;;;;;;19.57;12.00;;;;;;;28.94;56.70;101516.75;4993219;28;20484;-47
2022/07/21 05:49:01;;;;;;;14.57;12.17;;;;;;;29.10;53.97;101526.38;4991797;28;20437;-45
2022/07/21 05:51:29;;;;;;;21.63;12.80;;;;;;;29.27;56.01;101531.31;4993272;28;20824;-48
2022/07/21 05:53:56;;;;;;;15.53;11.33;;;;;;;28.78;55.61;101520.06;4993329;28;20429;-45
2022/07/21 05:56:25;;;;;;;17.30;12.03;;;;;;;27.72;54.33;101516.81;4992873;28;20199;-48
2022/07/21 05:58:53;;;;;;;17.73;11.20;;;;;;;27.32;55.84;101509.03;4989553;28;20198;-47
2022/07/21 06:01:21;;;;;;;16.60;10.63;;;;;;;26.84;57.89;101525.34;4986930;28;20250;-46
2022/07/21 06:03:51;;;;;;;12.83;9.43;;;;;;;27.06;58.11;101524.88;4973465;28;20430;-46
2022/07/21 06:06:20;;;;;;;17.40;10.37;;;;;;;26.78;59.12;101523.72;4973801;28;20492;-44
2022/07/21 06:08:48;;;;;;;14.30;9.60;;;;;;;26.75;59.68;101529.78;4973833;28;20438;-48
2022/07/21 06:11:19;;;;;;;12.50;9.97;;;;;;;26.57;58.50;101521.41;4973162;28;20473;-47
2022/07/21 06:13:48;;;;;;;15.17;9.63;;;;;;;25.82;61.09;101518.78;4973530;28;20430;-45
2022/07/21 06:16:16;;;;;;;12.97;9.10;;;;;;;25.08;63.05;101504.19;4973791;28;20431;-48
2022/07/21 06:18:44;;;;;;;12.17;8.93;;;;;;;24.59;66.53;101501.97;4973690;28;20845;-48
2022/07/21 06:21:12;;;;;;;10.53;8.57;;;;;;;;;;4973007;28;20469;-46
2022/07/21 06:23:39;;;;;;;13.77;9.33;;;;;;;23.64;70.56;101505.19;4973322;28;20434;-44
2022/07/21 06:26:07;;;;;;;12.40;8.67;;;;;;;23.50;73.07;101501.28;4973494;28;20489;-44
2022/07/21 06:28:35;;;;;;;13.13;11.20;;;;;;;23.42;73.34;101490.88;4973573;28;20460;-45
2022/07/21 06:31:04;;;;;;;10.17;9.13;;;;;;;23.43;73.27;101490.63;4973118;28;20465;-47
2022/07/21 06:33:31;;;;;;;19.30;10.60;;;;;;;23.79;72.26;101491.63;4984971;28;20441;-45
2022/07/21 06:35:59;;;;;;;13.50;10.50;;;;;;;23.94;71.07;101477.25;4992500;28;20430;-46
2022/07/21 06:38:26;;;;;;;10.77;9.17;;;;;;;23.92;71.60;101471.25;4992672;28;20444;-44
2022/07/21 06:40:55;;;;;;;11.07;9.40;;;;;;;24.04;70.51;101459.00;4992135;28;20923;-44
2022/07/21 06:43:22;;;;;;;13.00;10.13;;;;;;;23.88;69.96;101457.34;4991867;28;20469;-45
2022/07/21 06:45:56;;;;;;;16.30;9.97;;;;;;;23.84;70.02;101456.22;4991587;28;20535;-50
2022/07/21 06:48:26;;;;;;;14.73;10.23;;;;;;;23.71;70.89;101455.91;4992382;28;20839;-45
2022/07/21 06:50:55;;;;;;;15.87;9.90;;;;;;;23.74;70.59;101448.03;4992667;28;20460;-44
2022/07/21 06:53:24;;;;;;;14.63;10.93;;;;;;;23.80;69.13;101462.50;4992201;28;20975;-48
2022/07/21 06:55:54;;;;;;;10.40;9.40;;;;;;;23.77;68.32;101461.13;4992450;28;20440;-47
2022/07/21 06:58:30;;;;;;;16.70;9.33;;;;;;;23.88;67.48;101460.06;4992511;28;20426;-46
2022/07/21 07:01:03;;;;;;;10.30;9.27;;;;;;;24.08;68.24;101462.03;4991332;28;20858;-44
2022/07/21 07:03:33;;;;;;;14.27;8.70;;;;;;;24.29;66.87;101469.19;4991949;28;20441;-45
2022/07/21 07:06:02;;;;;;;9.47;8.77;;;;;;;24.58;66.53;101467.59;4992286;28;20504;-49
2022/07/21 07:08:30;;;;;;;11.90;10.00;;;;;;;24.56;66.35;101471.69;4992311;28;20438;-45
2022/07/21 07:10:58;;;;;;;14.33;9.90;;;;;;;24.66;66.03;101471.69;4991511;28;20507;-49
2022/07/21 07:13:25;;;;;;;14.07;9.93;;;;;;;24.57;64.58;101471.41;4992132;28;20433;-47
2022/07/21 07:16:14;;;;;;;10.87;8.23;;;;;;;24.44;64.93;101482.84;4989532;28;20433;-44
2022/07/21 07:18:43;;;;;;;10.50;9.47;;;;;;;24.32;66.94;101476.84;4987551;28;20445;-47
2022/07/21 07:21:11;;;;;;;12.50;9.83;;;;;;;24.43;66.84;101481.19;4989032;28;20457;-46
2022/07/21 07:23:39;;;;;;;10.30;7.90;;;;;;;24.44;66.22;101484.75;4991078;28;20433;-46
2022/07/21 07:26:07;;;;;;;10.20;8.70;;;;;;;24.36;66.41;101486.13;4991910;28;20479;-45
2022/07/21 07:28:35;;;;;;;15.20;8.77;;;;;;;24.23;66.02;101475.72;4992634;28;20437;-45
2022/07/21 07:31:02;;;;;;;12.90;7.70;;;;;;;24.04;66.24;101490.91;4991600;28;21021;-49
2022/07/21 07:33:30;;;;;;;10.60;7.80;;;;;;;23.74;67.25;101488.06;4991896;28;20437;-46
2022/07/21 07:35:59;;;;;;;8.93;8.03;;;;;;;23.68;68.32;101496.19;4991924;28;20436;-50
2022/07/21 07:38:27;;;;;;;10.40;8.37;;;;;;;23.59;69.63;101486.94;4992053;28;20447;-51
2022/07/21 07:40:54;;;;;;;8.67;7.67;;;;;;;23.55;70.33;101499.41;4990882;28;20484;-49
2022/07/21 07:43:22;;;;;;;8.57;7.83;;;;;;;23.55;70.21;101504.03;4991514;28;20520;-46
2022/07/21 07:45:49;;;;;;;11.37;7.67;;;;;;;23.69;70.08;101516.09;4990806;28;20545;-47
2022/07/21 07:48:17;;;;;;;9.40;7.93;;;;;;;23.88;70.67;101528.19;4992215;28;20441;-43
2022/07/21 07:50:45;;;;;;;11.13;7.97;;;;;;;24.06;70.29;101524.97;4992067;28;20433;-44
2022/07/21 07:53:14;;;;;;;8.93;8.00;;;;;;;24.23;69.28;101519.31;4992965;28;20460;-46
2022/07/21 07:55:41;;;;;;;11.73;8.40;;;;;;;24.38;68.18;101505.75;4995911;28;20439;-46
2022/07/21 07:58:09;;;;;;;8.80;7.97;;;;;;;24.46;68.08;101499.75;4995745;28;20443;-44
2022/07/21 08:00:37;;;;;;;9.63;8.60;;;;;;;24.52;68.10;101512.31;4995167;28;20438;-47
2022/07/21 08:03:23;;;;;;;9.13;7.97;;;;;;;24.42;68.33;101509.56;4995238;28;20449;-45
2022/07/21 08:05:51;;;;;;;10.00;7.77;;;;;;;24.31;70.62;101497.03;4995234;28;20441;-46
2022/07/21 08:08:21;;;;;;;9.17;8.17;;;;;;;24.27;70.23;101476.00;4995631;28;20548;-49
2022/07/21 08:10:49;;;;;;;11.77;8.00;;;;;;;23.89;70.76;101469.06;4995226;28;20426;-48
2022/07/21 08:13:18;;;;;;;12.90;8.50;;;;;;;23.49;72.69;101443.31;4994695;28;20465;-46
2022/07/21 08:15:47;;;;;;;10.90;8.33;;;;;;;23.30;74.96;101439.34;4995291;28;20440;-47
2022/07/21 08:18:17;;;;;;;12.67;7.63;;;;;;;23.01;76.48;101438.09;4995121;28;20473;-46
2022/07/21 08:20:45;;;;;;;11.47;8.80;;;;;;;23.37;77.18;101452.72;4995330;28;20437;-48
2022/07/21 08:23:14;;;;;;;8.73;7.87;;;;;;;23.86;78.34;101480.50;4994560;28;20532;-48
2022/07/21 08:25:43;;;;;;;11.00;8.30;;;;;;;24.33;75.62;101481.22;4995184;28;20449;-48
2022/07/21 08:28:11;;;;;;;9.17;8.10;;;;;;;24.78;72.33;101485.88;4994997;28;20480;-46
2022/07/21 08:30:39;;;;;;;11.87;8.83;;;;;;;24.92;68.83;101494.34;4994924;28;20795;-46
2022/07/21 08:33:07;;;;;;;9.40;8.50;;;;;;;25.33;69.44;101507.69;4994256;28;20453;-45
2022/07/21 08:35:35;;;;;;;10.53;8.33;;;;;;;25.56;67.12;101514.50;4995009;28;20437;-46
2022/07/21 08:38:05;;;;;;;14.37;9.10;;;;;;;25.84;66.95;101516.56;4995104;28;20463;-48
2022/07/21 08:40:36;;;;;;;12.50;8.90;;;;;;;25.91;63.38;101504.53;4994931;28;20436;-46
2022/07/21 08:43:08;;;;;;;9.30;8.50;;;;;;;25.46;63.77;101495.38;4994003;28;20469;-45
2022/07/21 08:45:36;;;;;;;11.70;8.57;;;;;;;25.00;64.86;101489.16;4994807;28;20437;-44
2022/07/21 08:48:05;;;;;;;11.90;8.90;;;;;;;25.06;66.38;101490.00;4994637;28;20483;-44
2022/07/21 08:50:35;;;;;;;9.23;7.73;;;;;;;25.09;66.31;101489.47;4994669;28;20921;-46
2022/07/21 08:53:03;;;;;;;9.30;8.00;;;;;;;25.00;66.97;101485.63;4994109;28;20475;-45
2022/07/21 08:55:32;;;;;;;12.20;8.57;;;;;;;24.97;67.03;101488.91;4994554;28;20870;-44
2022/07/21 08:58:01;;;;;;;10.53;7.87;;;;;;;24.92;67.46;101483.44;4994728;28;20506;-44
2022/07/21 09:00:36;;;;;;;17.23;8.50;;;;;;;24.80;67.70;101489.16;4994641;28;20580;-47
2022/07/21 09:03:12;;;;;;;11.13;7.93;;;;;;;24.59;67.72;101479.31;4993770;28;20912;-47
2022/07/21 09:05:40;;;;;;;9.40;8.60;;;;;;;24.34;67.88;101461.03;4993813;28;20440;-46
2022/07/21 09:08:08;;;;;;;11.60;8.70;;;;;;;24.04;70.03;101480.03;4994186;28;20478;-44
2022/07/21 09:10:36;;;;;;;8.17;7.47;;;;;;;23.95;71.13;101498.78;4994437;28;20444;-46
2022/07/21 09:13:06;;;;;;;9.13;8.37;;;;;;;23.86;71.93;101503.13;4993678;28;20816;-48
2022/07/21 09:15:36;;;;;;;11.97;9.03;;;;;;;23.75;72.48;101501.41;4994356;28;20434;-44
2022/07/21 09:18:07;;;;;;;14.47;8.60;;;;;;;23.63;73.45;101515.25;4994246;28;20511;-51
2022/07/21 09:20:40;;;;;;;8.20;7.43;;;;;;;23.52;74.52;101527.16;4994005;28;20488;-46
2022/07/21 09:23:10;;;;;;;9.93;8.20;;;;;;;23.39;75.29;101519.44;4993333;28;20465;-47
2022/07/21 09:25:40;;;;;;;14.73;9.07;;;;;;;23.15;77.42;101524.44;4994211;28;20432;-50
2022/07/21 09:28:14;;;;;;;12.50;8.00;;;;;;;23.09;78.13;101535.53;4993955;28;20484;-45
2022/07/21 09:30:55;;;;;;;9.07;7.67;;;;;;;22.96;78.75;101531.38;4993804;28;20931;-45
2022/07/21 09:33:25;;;;;;;12.27;8.00;;;;;;;22.84;78.86;101522.56;4993228;28;20515;-46
2022/07/21 09:35:58;;;;;;;11.13;8.20;;;;;;;22.71;80.22;101533.03;4994028;28;20430;-45
2022/07/21 09:38:27;;;;;;;14.83;9.23;;;;;;;22.66;81.33;101546.59;4994011;28;20430;-46
2022/07/21 09:40:56;;;;;;;8.97;8.00;;;;;;;22.65;82.63;101553.09;4993663;28;20835;-46
2022/07/21 09:43:41;;;;;;;12.07;9.60;;;;;;;22.60;83.92;101562.81;4993266;28;20871;-47
2022/07/21 09:46:13;;;;;;;11.97;9.00;;;;;;;22.57;84.43;101566.06;4993593;28;20978;-44
2022/07/21 09:48:43;;;;;;;11.47;8.03;;;;;;;22.60;84.87;101570.16;4993659;28;21081;-46
2022/07/21 09:51:28;;;;;;;10.63;8.50;;;;;;;22.62;85.26;101565.28;4993125;28;20454;-47
2022/07/21 09:53:59;;;;;;;10.83;8.90;;;;;;;22.74;85.60;101570.56;4993688;28;20425;-49
2022/07/21 09:56:28;;;;;;;11.37;9.23;;;;;;;22.86;85.43;101573.97;4993605;28;20446;-46
2022/07/21 09:58:58;;;;;;;8.83;8.00;;;;;;;23.07;85.93;101576.63;4993256;28;20426;-47
2022/07/21 10:01:28;;;;;;;12.33;9.00;;;;;;;23.12;83.45;101571.22;4993075;28;20849;-48
2022/07/21 10:03:58;;;;;;;10.77;8.97;;;;;;;23.48;83.23;101574.22;4992089;28;20899;-48
2022/07/21 10:06:28;;;;;;;11.00;10.00;;;;;;;23.92;82.10;101572.88;4993140;28;20803;-46
2022/07/21 10:08:57;;;;;;;10.17;9.00;;;;;;;24.55;75.83;101576.41;4993311;28;20473;-47
2022/07/21 10:11:26;;;;;;;10.87;9.10;;;;;;;24.82;74.25;101578.94;4992364;28;20983;-49
2022/07/21 10:13:57;;;;;;;10.53;9.43;;;;;;;25.60;72.17;101572.09;4992954;28;20438;-46
2022/07/21 10:16:25;;;;;;;14.10;9.83;;;;;;;26.19;68.71;101569.50;4991801;28;20776;-47
2022/07/21 10:19:15;;;;;;;12.70;8.80;;;;;;;26.51;66.03;101561.66;4992931;28;20524;-49
2022/07/21 10:21:52;;;;;;;8.57;8.03;;;;;;;26.92;63.78;101563.06;4992843;28;20480;-46
2022/07/21 10:24:20;;;;;;;10.00;8.90;;;;;;;26.57;61.85;101563.28;4992941;28;20440;-48
2022/07/21 10:27:06;;;;;;;11.93;9.40;;;;;;;26.38;62.53;101565.84;4993129;28;20443;-48
2022/07/21 10:30:00;;;;;;;9.90;9.10;;;;;;;26.18;61.54;101574.16;4993649;28;20424;-46
2022/07/21 10:32:31;;;;;;;11.03;9.97;;;;;;;26.26;64.08;101575.47;4991688;28;20504;-47
2022/07/21 10:35:02;;;;;;;10.33;9.53;;;;;;;26.64;63.13;101563.75;4992878;28;20438;-49
2022/07/21 10:37:49;;;;;;;10.60;9.30;;;;;;;26.96;61.21;101567.97;4992764;28;20528;-46
2022/07/21 10:40:35;;;;;;;9.97;8.97;;;;;;;27.04;59.38;101565.41;4992892;28;20436;-48
2022/07/21 10:43:37;;;;;;;10.33;9.17;;;;;;;27.42;59.93;101572.75;4991838;28;20469;-49
2022/07/21 10:46:40;;;;;;;10.00;9.17;;;;;;;27.83;58.89;101569.63;4984681;28;20447;-49
2022/07/21 10:49:10;;;;;;;9.60;8.60;;;;;;;27.96;57.09;101577.13;4992681;28;20483;-47
2022/07/21 10:51:39;;;;;;;13.13;8.30;;;;;;;28.15;58.50;101572.53;4992152;28;20511;-47
2022/07/21 10:54:26;;;;;;;8.73;7.90;;;;;;;28.56;55.08;101570.88;4992324;28;20433;-46
2022/07/21 10:57:25;;;;;;;8.20;7.40;;;;;;;28.87;54.05;101568.50;4992474;28;20965;-47
2022/07/21 11:00:19;;;;;;;9.10;7.10;;;;;;;28.99;52.47;101571.63;4991942;28;20953;-45
2022/07/21 11:02:52;;;;;;;8.43;7.50;;;;;;;28.68;54.25;101583.34;4991553;28;20466;-44
2022/07/21 11:05:21;;;;;;;10.40;7.97;;;;;;;28.56;53.91;101583.75;4992608;28;20438;-52
2022/07/21 11:08:11;;;;;;;8.80;7.80;;;;;;;28.40;54.75;101583.19;4992249;28;20469;-47
2022/07/21 11:10:40;;;;;;;7.37;6.77;;;;;;;28.42;53.67;101582.88;4992250;28;20433;-47
2022/07/21 11:13:08;;;;;;;8.70;7.43;;;;;;;28.39;53.62;101578.81;4991498;28;20472;-47
2022/07/21 11:15:56;;;;;;;8.80;7.50;;;;;;;28.45;53.59;101571.31;4992006;28;20433;-46
2022/07/21 11:18:28;;;;;;;8.80;7.90;;;;;;;28.51;52.51;101575.63;5011683;28;20436;-51
2022/07/21 11:21:10;;;;;;;13.23;7.47;;;;;;;28.45;50.75;101568.56;5011630;28;20432;-48
2022/07/21 11:23:44;;;;;;;8.07;7.27;;;;;;;28.67;52.41;101574.31;5011122;28;20448;-47
2022/07/21 11:26:14;;;;;;;7.50;6.83;;;;;;;28.81;51.60;101569.72;5011902;28;20443;-45
2022/07/21 11:28:42;;;;;;;12.07;9.43;;;;;;;28.71;50.81;101580.00;5014544;28;20482;-47